Time;durP1;ratioP1;P1;durP2;ratioP2;P2;SDS_P1;SDS_P2;PMS_P1;PMS_P2;Temp;Humidity;BMP_temperature;BMP_pressure;BME280_temperature;BME280_humidity;BME280_pressure;Samples;Min_cycle;Max_cycle;Signal;HPM_P1;HPM_P2
2022/01/18 00:01:57;;;;;;;9.63;2.50;;;0.20;99.90;-0.90;102101.00;;;;4996308;28;88123;-68
2022/01/18 00:04:27;;;;;;;6.77;2.37;;;0.50;99.90;-0.90;102100.00;;;;4996205;27;88181;-68
2022/01/18 00:06:53;;;;;;;9.60;3.90;;;-0.60;99.90;-0.90;102104.00;;;;4996095;27;88801;-68
2022/01/18 00:09:22;;;;;;;3.90;1.77;;;-0.60;99.90;-0.90;102093.00;;;;4996796;28;87635;-68
2022/01/18 00:11:58;;;;;;;3.43;1.93;;;0.20;99.90;-0.90;102090.00;;;;5002366;27;88846;-68
2022/01/18 00:14:39;;;;;;;11.07;3.23;;;-0.60;99.90;-0.90;102106.00;;;;5016062;27;87590;-69
2022/01/18 00:17:16;;;;;;;9.07;2.83;;;-0.70;99.90;-0.90;102106.00;;;;4993378;28;87991;-69
2022/01/18 00:19:52;;;;;;;4.90;2.73;;;-0.50;99.90;-0.90;102113.00;;;;4979332;28;87947;-68
2022/01/18 00:22:19;;;;;;;7.80;2.37;;;-0.60;99.90;-0.90;102101.00;;;;4984300;28;89346;-69
2022/01/18 00:24:44;;;;;;;5.47;1.90;;;0.40;99.90;-0.90;102122.00;;;;4996581;28;87703;-68
2022/01/18 00:27:14;;;;;;;9.40;4.00;;;-0.60;99.90;-0.90;102113.00;;;;4995527;28;87595;-68
2022/01/18 00:29:53;;;;;;;9.90;2.77;;;0.40;99.90;-1.00;102115.00;;;;4983951;28;88013;-68
2022/01/18 00:34:51;;;;;;;7.77;3.20;;;-0.70;99.90;-1.00;102119.00;;;;4971701;28;88691;-68
2022/01/18 00:37:53;;;;;;;6.97;2.57;;;-0.60;99.90;-1.10;102113.00;;;;4993527;28;87699;-68
2022/01/18 00:40:09;;;;;;;7.97;2.60;;;-0.60;99.90;-1.10;102117.00;;;;4992371;28;87852;-68
2022/01/18 00:42:35;;;;;;;6.10;3.10;;;-0.70;99.90;-1.10;102105.00;;;;5013365;27;103838;-68
2022/01/18 00:45:01;;;;;;;5.87;2.73;;;-0.80;99.90;-1.10;102125.00;;;;4999024;27;88836;-69
2022/01/18 00:47:27;;;;;;;5.50;3.37;;;-0.80;99.90;-1.10;102121.00;;;;4995970;27;87620;-68
2022/01/18 00:50:00;;;;;;;3.77;2.50;;;-0.70;99.90;-1.10;102128.00;;;;4996444;28;93720;-68
2022/01/18 00:52:28;;;;;;;7.10;2.83;;;-0.70;99.90;-1.10;102137.00;;;;5003353;27;88751;-68
2022/01/18 00:54:54;;;;;;;5.03;3.37;;;0.40;99.90;-1.20;102139.00;;;;4999871;27;88816;-68
2022/01/18 00:57:20;;;;;;;4.70;2.60;;;-0.80;99.90;-1.20;102144.00;;;;4997441;27;88905;-68
2022/01/18 00:59:47;;;;;;;12.30;4.20;;;-0.90;99.90;-1.20;102147.00;;;;5014932;27;109386;-68
2022/01/18 01:02:14;;;;;;;4.03;2.33;;;-0.80;99.90;-1.20;102155.00;;;;5005032;27;88389;-69
2022/01/18 01:04:47;;;;;;;9.80;3.37;;;-0.90;99.90;-1.20;102162.00;;;;4995178;28;104732;-67
2022/01/18 01:07:18;;;;;;;10.93;3.77;;;-0.80;99.90;-1.20;102159.00;;;;4994856;27;87888;-68
2022/01/18 01:09:43;;;;;;;7.83;3.43;;;-0.80;99.90;-1.20;102178.00;;;;4995736;27;87677;-68
2022/01/18 01:12:11;;;;;;;9.27;3.73;;;-0.80;99.90;-1.20;102173.00;;;;4994923;27;101191;-68
2022/01/18 01:14:39;;;;;;;7.50;3.30;;;-0.70;99.90;-1.20;102181.00;;;;4996023;28;87538;-68
2022/01/18 01:32:09;;;;;;;9.23;3.10;;;-0.80;99.90;-1.20;102178.00;;;;4992925;28;87890;-68
2022/01/18 01:41:50;;;;;;;10.20;2.13;;;-0.60;99.90;-1.30;102168.00;;;;4977271;27;87153;-67
2022/01/18 01:44:25;;;;;;;6.30;2.80;;;-0.90;99.90;-1.30;102181.00;;;;4994577;28;89108;-68
2022/01/18 01:46:52;;;;;;;8.73;2.63;;;-0.90;99.90;-1.30;102187.00;;;;4994878;28;88981;-68
2022/01/18 01:49:19;;;;;;;7.80;4.03;;;-1.00;99.90;-1.30;102175.00;;;;4979044;27;88721;-68
2022/01/18 01:51:47;;;;;;;12.60;3.53;;;-0.90;99.90;-1.30;102188.00;;;;5013391;27;87796;-68
2022/01/18 01:54:13;;;;;;;10.23;3.53;;;-0.90;99.90;-1.30;102193.00;;;;4996886;27;90415;-67
2022/01/18 01:56:39;;;;;;;17.03;2.97;;;-0.90;99.90;-1.30;102189.00;;;;5014232;27;88782;-68
2022/01/18 01:59:07;;;;;;;7.43;3.17;;;-0.90;99.90;-1.30;102185.00;;;;5015389;27;88081;-68
2022/01/18 02:01:48;;;;;;;12.50;3.20;;;-1.00;99.90;-1.40;102192.00;;;;5014585;27;87695;-67
2022/01/18 02:04:16;;;;;;;7.40;3.73;;;-1.00;99.90;-1.40;102193.00;;;;5014682;27;89284;-68
2022/01/18 02:06:42;;;;;;;9.40;3.00;;;-1.10;99.90;-1.40;102192.00;;;;4992818;27;87108;-68
2022/01/18 02:09:08;;;;;;;9.67;3.47;;;-1.10;99.90;-1.40;102193.00;;;;4983427;28;88275;-68
2022/01/18 02:11:34;;;;;;;4.33;2.40;;;-0.30;99.90;-1.50;102191.00;;;;4976895;28;91725;-68
2022/01/18 02:14:00;;;;;;;4.43;2.97;;;-1.10;99.90;-1.50;102185.00;;;;4993736;28;95399;-68
2022/01/18 02:22:01;;;;;;;5.13;2.33;;;-1.20;99.90;-1.60;102197.00;;;;4995329;28;88004;-68
2022/01/18 02:24:26;;;;;;;8.63;3.17;;;-1.10;99.90;-1.60;102179.00;;;;4997244;28;116655;-68
2022/01/18 02:26:52;;;;;;;2.93;2.40;;;-1.10;99.90;-1.60;102187.00;;;;5003257;27;117080;-68
2022/01/18 02:29:18;;;;;;;11.30;3.37;;;-1.20;99.90;-1.60;102176.00;;;;5017966;27;87678;-69
2022/01/18 02:31:44;;;;;;;11.73;3.27;;;-1.20;99.90;-1.60;102180.00;;;;4996922;28;87170;-69
2022/01/18 02:34:17;;;;;;;8.27;2.60;;;-1.20;99.90;-1.60;102179.00;;;;4978766;28;87852;-68
2022/01/18 02:36:44;;;;;;;4.63;2.57;;;-1.20;99.90;-1.60;102175.00;;;;4978710;28;87926;-68
2022/01/18 02:39:12;;;;;;;12.33;3.20;;;-1.20;99.90;-1.70;102165.00;;;;5016385;27;88944;-68
2022/01/18 02:41:38;;;;;;;8.00;3.33;;;-1.30;99.90;-1.70;102159.00;;;;4998966;27;88053;-68
2022/01/18 02:44:11;;;;;;;7.97;4.13;;;-0.20;99.90;-1.60;102159.00;;;;5018024;27;88026;-68
2022/01/18 02:46:38;;;;;;;2.87;2.37;;;-1.20;99.90;-1.60;102154.00;;;;5016537;27;88299;-68
2022/01/18 02:49:06;;;;;;;11.00;3.50;;;-1.30;99.90;-1.60;102154.00;;;;5018081;27;87688;-68
2022/01/18 02:51:34;;;;;;;7.73;3.50;;;-1.30;99.90;-1.60;102156.00;;;;5017882;27;87710;-68
2022/01/18 02:54:08;;;;;;;18.63;3.77;;;-1.20;99.90;-1.60;102165.00;;;;5017107;27;89319;-68
2022/01/18 02:56:41;;;;;;;3.23;2.63;;;-1.30;99.90;-1.60;102162.00;;;;5017750;27;88505;-68
2022/01/18 02:59:17;;;;;;;6.50;3.20;;;-1.30;99.90;-1.60;102162.00;;;;5018273;27;87715;-68
2022/01/18 03:04:28;;;;;;;16.57;4.23;;;-0.10;99.90;-1.50;102157.00;;;;5017036;27;88708;-68
2022/01/18 03:06:54;;;;;;;11.27;4.80;;;-1.20;99.90;-1.50;102149.00;;;;5010188;27;89762;-68
2022/01/18 03:09:19;;;;;;;14.67;4.63;;;-1.20;99.90;-1.50;102152.00;;;;4992129;28;107864;-68
2022/01/18 03:11:46;;;;;;;14.97;3.83;;;-1.20;99.90;-1.40;102157.00;;;;5003633;27;91752;-69
2022/01/18 03:14:12;;;;;;;10.87;3.80;;;-1.10;99.90;-1.40;102160.00;;;;4993799;28;88077;-67
2022/01/18 03:16:39;;;;;;;10.23;4.23;;;-1.10;99.90;-1.40;102157.00;;;;4996169;28;118013;-67
2022/01/18 03:19:05;;;;;;;9.30;3.13;;;-1.00;99.90;-1.40;102163.00;;;;4997648;28;87735;-67
2022/01/18 03:21:30;;;;;;;10.47;4.40;;;-0.10;99.90;-1.40;102157.00;;;;4978963;28;87115;-68
2022/01/18 03:24:11;;;;;;;3.60;2.40;;;-1.00;99.90;-1.40;102154.00;;;;4977462;28;105653;-67
2022/01/18 03:28:04;;;;;;;7.40;2.90;;;-0.90;99.90;-1.40;102146.00;;;;5001743;27;87743;-66
2022/01/18 03:29:24;;;;;;;7.80;3.20;;;-0.90;99.90;-1.40;102163.00;;;;5016140;27;88788;-67
2022/01/18 03:31:50;;;;;;;8.03;3.63;;;-1.00;99.90;-1.40;102165.00;;;;5015568;27;87658;-67
2022/01/18 03:34:16;;;;;;;7.27;3.80;;;-0.80;99.90;-1.40;102170.00;;;;5016621;27;88359;-67
2022/01/18 03:36:42;;;;;;;6.80;3.73;;;-1.00;99.90;-1.40;102177.00;;;;5015857;27;115358;-66
2022/01/18 03:39:08;;;;;;;6.50;4.00;;;-1.00;99.90;-1.40;102170.00;;;;5011184;27;110281;-68
2022/01/18 03:41:33;;;;;;;11.93;3.93;;;-1.10;99.90;-1.40;102174.00;;;;4999617;27;87680;-67
2022/01/18 03:43:59;;;;;;;9.07;3.47;;;-0.90;99.90;-1.40;102176.00;;;;5016253;27;117683;-67
2022/01/18 03:46:25;;;;;;;6.90;4.00;;;-1.10;99.90;-1.40;102184.00;;;;5015776;27;118466;-66
2022/01/18 03:48:52;;;;;;;7.53;2.50;;;-0.90;99.90;-1.40;102190.00;;;;5016639;27;87784;-66
2022/01/18 03:51:18;;;;;;;4.00;2.10;;;-1.10;99.90;-1.40;102194.00;;;;5016927;27;87759;-66
2022/01/18 03:53:44;;;;;;;11.93;3.53;;;-0.90;99.90;-1.40;102202.00;;;;5015929;27;89300;-66
2022/01/18 03:56:10;;;;;;;9.53;2.97;;;-1.10;99.90;-1.40;102207.00;;;;5016332;27;88880;-66
2022/01/18 03:58:36;;;;;;;14.47;3.57;;;-1.10;99.90;-1.40;102216.00;;;;5016235;27;110033;-66
2022/01/18 04:01:03;;;;;;;7.93;3.67;;;-1.00;99.90;-1.40;102210.00;;;;5017142;27;87794;-67
2022/01/18 04:03:29;;;;;;;7.73;2.87;;;-1.00;99.90;-1.40;102211.00;;;;4977416;28;117977;-67
2022/01/18 04:05:56;;;;;;;7.87;2.87;;;-1.00;99.90;-1.40;102217.00;;;;4996323;27;95806;-67
2022/01/18 04:08:22;;;;;;;2.47;2.13;;;-0.90;99.90;-1.40;102222.00;;;;4998474;27;88083;-66
2022/01/18 04:10:49;;;;;;;5.43;3.47;;;-1.00;99.90;-1.40;102219.00;;;;5009254;27;87157;-66
2022/01/18 04:13:14;;;;;;;18.30;3.37;;;-1.00;99.90;-1.40;102212.00;;;;5015431;27;103157;-67
2022/01/18 04:15:41;;;;;;;6.57;3.13;;;-1.10;99.90;-1.50;102214.00;;;;5016422;27;87772;-66
2022/01/18 04:18:19;;;;;;;17.33;4.23;;;-1.00;99.90;-1.50;102209.00;;;;4998243;27;88590;-66
2022/01/18 04:28:59;;;;;;;12.03;3.83;;;-1.20;99.90;-1.60;102222.00;;;;4995709;28;87604;-66
2022/01/18 04:31:26;;;;;;;7.43;3.67;;;-1.10;99.90;-1.60;102217.00;;;;4999507;27;87935;-66
2022/01/18 04:33:52;;;;;;;10.00;4.03;;;-1.20;99.90;-1.60;102221.00;;;;4992689;28;87779;-66
2022/01/18 04:36:19;;;;;;;7.70;3.20;;;-1.10;99.90;-1.60;102212.00;;;;4996421;28;87957;-68
2022/01/18 04:38:45;;;;;;;6.57;2.80;;;-1.20;99.90;-1.70;102222.00;;;;4996767;27;87637;-66
2022/01/18 04:41:14;;;;;;;11.20;3.43;;;-1.30;99.90;-1.70;102226.00;;;;4995845;27;99016;-68
2022/01/18 04:49:11;;;;;;;17.70;4.57;;;-1.30;99.90;-1.70;102236.00;;;;4995997;28;87835;-66
2022/01/18 04:51:38;;;;;;;12.13;4.00;;;-1.30;99.90;-1.70;102237.00;;;;4995907;27;87993;-67
2022/01/18 04:54:08;;;;;;;10.27;4.23;;;-1.40;99.90;-1.70;102247.00;;;;4995309;28;87980;-66
2022/01/18 04:59:10;;;;;;;4.77;3.53;;;-1.30;99.90;-1.70;102234.00;;;;4996371;27;88044;-66
2022/01/18 05:01:39;;;;;;;10.10;3.20;;;-1.30;99.90;-1.70;102243.00;;;;5002039;27;87007;-66
2022/01/18 05:04:04;;;;;;;11.60;4.20;;;-1.30;99.90;-1.70;102251.00;;;;5015438;27;88849;-66
2022/01/18 05:06:30;;;;;;;5.07;2.57;;;-1.30;99.90;-1.70;102256.00;;;;5006641;27;99174;-66
2022/01/18 05:08:57;;;;;;;10.43;3.80;;;-1.30;99.90;-1.70;102257.00;;;;4994916;27;88605;-66
2022/01/18 05:11:25;;;;;;;15.77;3.77;;;-1.30;99.90;-1.70;102253.00;;;;4995532;27;87812;-66
2022/01/18 05:24:23;;;;;;;10.07;3.47;;;-1.00;99.90;-1.80;102267.00;;;;5014069;27;102026;-66
2022/01/18 05:26:51;;;;;;;8.27;3.20;;;-1.40;99.90;-1.80;102266.00;;;;5014686;27;102305;-67
2022/01/18 05:29:17;;;;;;;8.37;2.87;;;-1.40;99.90;-1.80;102263.00;;;;4997042;27;87816;-67
2022/01/18 05:31:44;;;;;;;7.03;3.23;;;-1.40;99.90;-1.80;102266.00;;;;5015502;27;87487;-66
2022/01/18 05:34:10;;;;;;;13.37;3.27;;;-1.40;99.90;-1.80;102267.00;;;;5012803;27;88707;-68
2022/01/18 05:36:36;;;;;;;9.67;2.93;;;-1.40;99.90;-1.80;102264.00;;;;5013001;27;89761;-68
2022/01/18 05:39:03;;;;;;;4.17;2.97;;;-1.40;99.90;-1.70;102256.00;;;;5015107;27;87885;-66
2022/01/18 05:41:29;;;;;;;6.50;3.80;;;-1.30;99.90;-1.60;102257.00;;;;4996429;27;87951;-66
2022/01/18 05:43:55;;;;;;;12.53;3.80;;;-1.30;99.90;-1.50;102260.00;;;;5013375;27;88710;-66
2022/01/18 05:46:20;;;;;;;8.60;4.00;;;-1.20;99.90;-1.50;102258.00;;;;5014058;27;116898;-66
2022/01/18 05:48:46;;;;;;;16.47;4.50;;;-1.20;99.90;-1.40;102258.00;;;;4992870;27;111668;-66
2022/01/18 05:51:13;;;;;;;16.37;3.73;;;-1.10;99.90;-1.40;102271.00;;;;5011300;27;108220;-67
2022/01/18 05:53:39;;;;;;;8.80;4.07;;;-1.00;99.90;-1.40;102276.00;;;;5007961;27;87699;-66
2022/01/18 05:56:11;;;;;;;7.10;3.00;;;-0.90;99.90;-1.30;102271.00;;;;5009496;27;87728;-67
2022/01/18 05:58:41;;;;;;;3.30;3.00;;;-0.30;99.90;-1.20;102277.00;;;;5004883;27;89065;-67
2022/01/18 06:01:07;;;;;;;7.60;2.93;;;-0.90;99.90;-1.20;102274.00;;;;5008061;27;87732;-67
2022/01/18 06:03:39;;;;;;;13.33;3.53;;;-0.90;99.90;-1.20;102281.00;;;;4999601;27;89142;-68
2022/01/18 06:08:49;;;;;;;13.50;3.30;;;-0.60;99.90;-1.10;102284.00;;;;5001628;27;87738;-68
2022/01/18 06:11:14;;;;;;;11.63;3.67;;;-0.70;99.90;-1.00;102282.00;;;;5010651;27;108358;-68
2022/01/18 06:13:40;;;;;;;9.90;4.43;;;-0.70;99.90;-0.90;102284.00;;;;5010535;27;92206;-67
2022/01/18 06:16:06;;;;;;;7.13;4.23;;;-0.60;99.90;-0.90;102279.00;;;;5010524;27;116628;-69
2022/01/18 06:18:32;;;;;;;7.90;4.47;;;-0.40;99.90;-0.80;102289.00;;;;5010475;27;87766;-68
2022/01/18 06:20:58;;;;;;;4.80;3.13;;;-0.50;99.90;-0.80;102302.00;;;;5004989;27;87835;-68
2022/01/18 06:23:24;;;;;;;10.73;3.43;;;-0.50;99.90;-0.70;102296.00;;;;5009793;27;89811;-68
2022/01/18 06:25:50;;;;;;;10.50;4.10;;;-0.50;99.90;-0.70;102315.00;;;;5011002;27;89695;-68
2022/01/18 06:28:16;;;;;;;11.70;3.23;;;0.10;99.90;-0.70;102298.00;;;;5004832;27;108089;-68
2022/01/18 06:30:42;;;;;;;15.83;3.40;;;0.30;99.90;-0.70;102296.00;;;;5010076;27;87854;-68
2022/01/18 06:33:08;;;;;;;9.23;3.60;;;-0.20;99.90;-0.60;102302.00;;;;5009136;27;117745;-68
2022/01/18 06:35:33;;;;;;;5.73;3.60;;;-0.30;99.90;-0.60;102315.00;;;;5010476;27;88480;-68
2022/01/18 06:37:59;;;;;;;9.53;3.03;;;0.40;99.90;-0.50;102328.00;;;;5005430;27;110430;-68
2022/01/18 06:40:26;;;;;;;7.60;3.33;;;0.60;99.90;-0.50;102322.00;;;;5010496;27;108567;-68
2022/01/18 06:42:52;;;;;;;16.77;4.00;;;-0.10;99.90;-0.50;102326.00;;;;5008819;27;88042;-68
2022/01/18 06:45:18;;;;;;;13.53;5.43;;;-0.20;99.90;-0.40;102333.00;;;;5010562;27;90688;-68
2022/01/18 06:47:45;;;;;;;13.23;4.20;;;0.60;99.90;-0.40;102345.00;;;;4988461;27;109955;-68
2022/01/18 06:50:11;;;;;;;23.70;3.77;;;-0.10;99.90;-0.40;102341.00;;;;5002703;27;88011;-68
2022/01/18 06:52:38;;;;;;;11.80;6.73;;;-0.10;99.90;-0.40;102338.00;;;;5007950;27;87926;-68
2022/01/18 06:55:07;;;;;;;8.93;3.60;;;-0.30;99.90;-0.40;102335.00;;;;4991849;27;87877;-68
2022/01/18 06:57:32;;;;;;;9.73;3.97;;;0.00;99.90;-0.30;102336.00;;;;5004424;27;87852;-68
2022/01/18 06:59:58;;;;;;;12.77;3.77;;;-0.10;99.90;-0.30;102334.00;;;;5008916;27;108180;-68
2022/01/18 07:02:24;;;;;;;14.43;3.83;;;0.00;99.90;-0.30;102332.00;;;;5005260;27;117965;-68
2022/01/18 07:04:49;;;;;;;7.27;3.03;;;0.10;99.90;-0.20;102339.00;;;;5011415;27;97820;-68
2022/01/18 07:07:17;;;;;;;11.83;2.97;;;1.00;99.90;-0.20;102359.00;;;;5006399;27;110637;-68
2022/01/18 07:09:44;;;;;;;11.40;3.83;;;1.10;99.90;-0.20;102361.00;;;;5002002;27;87661;-68
2022/01/18 07:12:12;;;;;;;10.53;3.10;;;0.10;99.90;-0.20;102364.00;;;;5014011;27;88961;-68
2022/01/18 07:14:41;;;;;;;9.00;3.30;;;0.10;99.90;-0.20;102372.00;;;;5013216;27;89367;-68
2022/01/18 07:17:08;;;;;;;6.80;2.97;;;0.20;99.90;-0.10;102355.00;;;;5012834;27;87548;-68
2022/01/18 07:19:34;;;;;;;10.93;3.37;;;0.20;99.90;-0.10;102365.00;;;;5013738;27;88045;-68
2022/01/18 07:22:00;;;;;;;8.70;3.87;;;0.30;99.90;0.00;102361.00;;;;5006303;27;88976;-69
2022/01/18 07:24:38;;;;;;;5.37;3.33;;;0.30;99.90;0.00;102360.00;;;;4994818;27;87790;-68
2022/01/18 07:27:09;;;;;;;11.00;3.40;;;0.30;99.90;0.00;102376.00;;;;5013378;27;87986;-67
2022/01/18 07:29:35;;;;;;;13.23;3.10;;;0.40;99.90;0.10;102371.00;;;;5007020;27;87158;-68
2022/01/18 07:32:02;;;;;;;13.87;3.80;;;0.80;99.90;0.00;102376.00;;;;5012201;27;88906;-68
2022/01/18 07:34:28;;;;;;;6.50;3.93;;;0.40;99.90;0.10;102390.00;;;;5013021;27;88715;-67
2022/01/18 07:36:53;;;;;;;6.93;4.00;;;0.40;99.90;0.10;102392.00;;;;5008464;27;88526;-68
2022/01/18 07:39:19;;;;;;;10.17;4.10;;;0.40;99.90;0.10;102393.00;;;;5008217;27;99774;-68
2022/01/18 07:41:45;;;;;;;12.00;3.80;;;0.70;99.90;0.20;102403.00;;;;5013020;27;117227;-69
2022/01/18 07:44:11;;;;;;;9.63;4.17;;;0.40;99.90;0.20;102393.00;;;;5012634;27;116260;-69
2022/01/18 07:46:36;;;;;;;11.03;4.67;;;0.40;99.90;0.20;102398.00;;;;5006724;27;87515;-67
2022/01/18 07:49:02;;;;;;;11.47;4.50;;;1.40;99.90;0.20;102405.00;;;;5012300;27;108548;-67
2022/01/18 07:51:28;;;;;;;13.73;4.93;;;1.50;99.90;0.20;102396.00;;;;5013060;27;88494;-67
2022/01/18 07:53:53;;;;;;;9.10;4.83;;;0.60;99.90;0.20;102409.00;;;;5011849;27;116343;-70
2022/01/18 07:56:19;;;;;;;7.57;3.37;;;1.00;99.90;0.30;102403.00;;;;5012060;27;87818;-69
2022/01/18 07:58:45;;;;;;;13.80;4.47;;;1.00;99.90;0.30;102403.00;;;;5007939;27;109749;-69
2022/01/18 08:01:10;;;;;;;7.80;3.57;;;1.00;99.90;0.30;102413.00;;;;5011255;27;89995;-67
2022/01/18 08:03:36;;;;;;;9.67;5.27;;;1.50;99.90;0.30;102418.00;;;;5007446;27;118619;-67
2022/01/18 08:06:02;;;;;;;5.40;3.60;;;0.70;99.90;0.40;102415.00;;;;5012750;27;109935;-67
2022/01/18 08:08:27;;;;;;;11.40;4.63;;;0.70;99.90;0.40;102406.00;;;;5007179;27;88057;-67
2022/01/18 08:10:54;;;;;;;5.33;3.80;;;0.70;99.90;0.40;102425.00;;;;5013203;27;88701;-68
2022/01/18 08:13:28;;;;;;;13.33;4.77;;;1.80;99.90;0.40;102428.00;;;;5010956;27;94843;-68
2022/01/18 08:16:10;;;;;;;14.43;5.87;;;1.00;99.90;0.40;102433.00;;;;5005122;27;87803;-68
2022/01/18 08:18:36;;;;;;;10.73;5.23;;;0.80;99.90;0.40;102430.00;;;;5007079;27;87014;-67
2022/01/18 08:21:03;;;;;;;7.47;3.70;;;0.90;99.90;0.50;102424.00;;;;5002037;27;89264;-67
2022/01/18 08:23:29;;;;;;;12.47;4.93;;;1.50;99.90;0.50;102438.00;;;;4995938;27;88132;-67
2022/01/18 08:25:54;;;;;;;13.53;3.57;;;1.70;99.90;0.50;102437.00;;;;5011240;27;98955;-67
2022/01/18 08:28:20;;;;;;;13.43;3.87;;;0.80;99.90;0.50;102436.00;;;;5004058;27;109056;-66
2022/01/18 08:30:46;;;;;;;5.37;2.30;;;0.90;99.90;0.50;102436.00;;;;5012410;27;117516;-67
2022/01/18 08:33:11;;;;;;;18.43;4.57;;;1.10;99.90;0.60;102436.00;;;;5007792;27;107743;-68
2022/01/18 08:35:37;;;;;;;14.60;3.63;;;1.00;99.90;0.60;102444.00;;;;5004491;27;110247;-68
2022/01/18 08:38:04;;;;;;;8.27;3.20;;;1.00;99.90;0.60;102450.00;;;;5010672;27;87810;-69
2022/01/18 08:40:30;;;;;;;6.17;3.43;;;1.00;99.90;0.70;102454.00;;;;5012666;27;88617;-69
2022/01/18 08:42:55;;;;;;;9.50;3.30;;;1.00;99.90;0.70;102459.00;;;;5011829;27;104033;-68
2022/01/18 08:45:21;;;;;;;8.13;3.60;;;1.10;99.90;0.70;102461.00;;;;5011043;27;109683;-68
2022/01/18 08:47:49;;;;;;;7.97;3.90;;;1.10;99.90;0.70;102454.00;;;;5006355;27;105623;-69
2022/01/18 08:50:17;;;;;;;11.50;4.57;;;1.30;99.90;0.80;102470.00;;;;5010474;27;88975;-69
2022/01/18 08:52:43;;;;;;;9.83;3.03;;;1.10;99.90;0.80;102469.00;;;;4992443;27;90047;-68
2022/01/18 08:55:09;;;;;;;7.13;3.60;;;1.60;99.90;0.80;102475.00;;;;4993094;27;87790;-68
2022/01/18 08:57:34;;;;;;;6.60;4.07;;;1.20;99.90;0.90;102478.00;;;;5009827;27;108612;-68
2022/01/18 09:00:00;;;;;;;5.20;2.93;;;1.20;99.90;0.90;102479.00;;;;5010940;27;117785;-69
2022/01/18 09:02:26;;;;;;;16.07;4.27;;;1.20;99.90;1.00;102475.00;;;;5005629;27;118689;-68
2022/01/18 09:04:51;;;;;;;10.33;3.10;;;1.50;99.90;1.00;102454.00;;;;5010929;27;110919;-67
2022/01/18 09:07:19;;;;;;;14.33;4.77;;;1.30;99.90;1.10;102464.00;;;;5011103;27;87387;-68
2022/01/18 09:09:48;;;;;;;9.50;5.20;;;2.00;99.90;1.20;102474.00;;;;5011514;27;88680;-69
2022/01/18 09:12:17;;;;;;;17.87;6.27;;;2.30;99.90;1.30;102482.00;;;;5010999;27;88474;-69
2022/01/18 09:14:43;;;;;;;12.70;6.23;;;1.50;99.90;1.30;102479.00;;;;5011851;27;88878;-69
2022/01/18 09:17:08;;;;;;;8.37;4.37;;;1.90;99.90;1.30;102483.00;;;;5010386;27;99870;-69
2022/01/18 09:19:34;;;;;;;9.93;4.80;;;2.40;99.90;1.40;102491.00;;;;5009319;27;113467;-69
2022/01/18 09:22:03;;;;;;;11.87;5.03;;;1.90;99.90;1.50;102500.00;;;;5005922;27;116935;-69
2022/01/18 09:24:29;;;;;;;14.80;4.67;;;2.20;99.90;1.50;102494.00;;;;5012103;27;87744;-69
2022/01/18 09:26:55;;;;;;;9.77;4.63;;;1.80;99.90;1.60;102491.00;;;;5011822;27;87696;-69
2022/01/18 09:29:21;;;;;;;16.27;7.00;;;2.40;99.90;1.70;102507.00;;;;5011279;27;88621;-68
2022/01/18 09:31:47;;;;;;;13.10;6.03;;;2.00;99.90;1.70;102502.00;;;;5011200;27;117752;-68
2022/01/18 09:34:12;;;;;;;12.53;4.50;;;2.00;99.90;1.70;102494.00;;;;5004909;27;102752;-68
2022/01/18 09:36:38;;;;;;;16.77;4.53;;;2.50;99.90;1.80;102503.00;;;;5010146;27;87811;-68
2022/01/18 09:39:05;;;;;;;11.57;3.93;;;2.20;99.90;1.90;102509.00;;;;5009612;27;118222;-68
2022/01/18 09:41:39;;;;;;;13.03;3.83;;;2.20;99.90;2.00;102504.00;;;;5012234;27;89586;-69
2022/01/18 09:44:07;;;;;;;6.27;2.77;;;2.70;99.90;2.10;102505.00;;;;4993687;27;87851;-69
2022/01/18 09:46:33;;;;;;;10.37;4.23;;;2.30;99.90;2.10;102512.00;;;;4987081;27;87698;-68
2022/01/18 09:49:00;;;;;;;3.97;2.90;;;2.30;99.90;2.20;102504.00;;;;5011318;27;89308;-68
2022/01/18 09:51:28;;;;;;;17.03;3.70;;;2.50;99.90;2.30;102505.00;;;;4991578;27;87775;-68
2022/01/18 09:53:55;;;;;;;8.67;2.73;;;2.60;99.90;2.30;102507.00;;;;5011869;27;87786;-68
2022/01/18 09:56:21;;;;;;;14.53;3.53;;;2.60;99.90;2.30;102509.00;;;;5010295;27;108417;-68
2022/01/18 09:58:46;;;;;;;11.13;4.23;;;2.70;99.90;2.40;102508.00;;;;5007983;27;88472;-67
2022/01/18 10:01:12;;;;;;;18.40;5.17;;;2.80;99.90;2.40;102507.00;;;;5009730;27;117269;-68
2022/01/18 10:03:41;;;;;;;9.77;4.40;;;2.70;99.90;2.50;102501.00;;;;5009944;27;88705;-68
2022/01/18 10:06:09;;;;;;;7.87;4.03;;;2.70;99.90;2.50;102510.00;;;;4991863;27;88131;-68
2022/01/18 10:08:38;;;;;;;10.33;3.53;;;2.80;99.90;2.60;102494.00;;;;5002682;27;88822;-68
2022/01/18 10:11:10;;;;;;;15.60;3.40;;;2.90;99.90;2.60;102512.00;;;;5003547;27;88403;-68
2022/01/18 10:13:37;;;;;;;12.50;2.93;;;3.00;99.90;2.70;102503.00;;;;5008781;27;87858;-68
2022/01/18 10:16:09;;;;;;;13.40;2.87;;;3.00;99.90;2.80;102511.00;;;;5010148;27;87672;-67
2022/01/18 10:18:51;;;;;;;4.37;1.97;;;3.10;99.90;2.80;102519.00;;;;5004427;27;88060;-67
2022/01/18 10:21:23;;;;;;;2.93;2.13;;;3.10;99.90;3.00;102523.00;;;;4987537;27;87235;-68
2022/01/18 10:23:49;;;;;;;13.90;3.13;;;3.20;99.90;3.00;102514.00;;;;5010373;27;87749;-69
2022/01/18 10:26:25;;;;;;;4.20;2.50;;;3.30;99.90;3.10;102505.00;;;;4992128;27;88103;-68
2022/01/18 10:29:05;;;;;;;16.20;4.10;;;3.40;99.90;3.20;102508.00;;;;5010393;27;89396;-69
2022/01/18 10:31:40;;;;;;;6.83;2.77;;;3.40;99.90;3.30;102520.00;;;;5011513;27;88021;-69
2022/01/18 10:37:25;;;;;;;5.90;2.83;;;3.60;99.90;3.50;102511.00;;;;4979479;27;88040;-68
2022/01/18 10:40:16;;;;;;;4.17;2.60;;;3.80;99.90;3.60;102508.00;;;;4987016;27;88007;-68
2022/01/18 10:42:49;;;;;;;5.87;2.70;;;3.80;99.90;3.70;102520.00;;;;5013245;27;88243;-67
2022/01/18 10:45:33;;;;;;;2.63;1.97;;;3.90;99.90;3.80;102521.00;;;;5014867;27;87853;-69
2022/01/18 10:48:11;;;;;;;2.37;2.00;;;4.00;99.90;3.80;102517.00;;;;5009653;27;87073;-68
2022/01/18 10:50:41;;;;;;;15.13;3.03;;;4.10;99.90;3.80;102524.00;;;;5014125;27;87765;-68
2022/01/18 10:53:21;;;;;;;5.97;2.90;;;4.10;99.90;3.90;102516.00;;;;5009379;27;88966;-69
2022/01/18 10:55:51;;;;;;;7.53;2.57;;;4.10;99.90;4.00;102516.00;;;;4975413;28;88856;-68
2022/01/18 10:58:21;;;;;;;5.57;2.60;;;4.20;99.90;4.00;102519.00;;;;4986253;27;87924;-67
2022/01/18 11:00:48;;;;;;;4.73;2.10;;;4.20;99.90;4.00;102501.00;;;;5015403;27;88557;-66
2022/01/18 11:03:14;;;;;;;4.53;1.97;;;4.20;99.90;4.00;102500.00;;;;5004761;27;88473;-67
2022/01/18 11:05:43;;;;;;;5.97;2.93;;;4.20;99.90;4.00;102509.00;;;;4976586;28;87794;-70
2022/01/18 11:08:09;;;;;;;5.83;2.10;;;4.20;99.90;4.00;102514.00;;;;5003300;27;87901;-68
2022/01/18 11:10:40;;;;;;;7.20;1.77;;;4.30;99.90;4.00;102508.00;;;;5005717;27;88186;-68
2022/01/18 11:13:11;;;;;;;11.60;2.70;;;4.30;99.90;4.10;102506.00;;;;4990610;27;87343;-68
2022/01/18 11:15:43;;;;;;;7.80;2.90;;;4.30;99.90;4.10;102506.00;;;;5014574;27;88042;-68
2022/01/18 11:18:25;;;;;;;7.37;2.27;;;4.40;99.90;4.20;102509.00;;;;5008664;27;87715;-67
2022/01/18 11:20:51;;;;;;;10.70;3.13;;;4.40;99.90;4.30;102501.00;;;;5006975;27;89392;-67
2022/01/18 11:23:17;;;;;;;8.77;2.97;;;4.50;99.90;4.30;102501.00;;;;5013030;27;88072;-67
2022/01/18 11:25:46;;;;;;;7.57;2.60;;;4.50;99.90;4.40;102498.00;;;;5012668;27;88070;-66
2022/01/18 11:28:12;;;;;;;11.07;2.60;;;4.60;99.90;4.50;102504.00;;;;5007594;27;87779;-65
2022/01/18 11:30:42;;;;;;;8.87;1.80;;;4.60;99.90;4.50;102495.00;;;;5013809;27;88200;-65
2022/01/18 11:33:14;;;;;;;8.83;2.27;;;5.50;99.90;4.50;102493.00;;;;4993482;27;88302;-65
2022/01/18 11:36:03;;;;;;;5.27;2.10;;;4.70;99.90;4.40;102483.00;;;;5012820;27;87854;-65
2022/01/18 11:38:37;;;;;;;9.17;2.07;;;4.70;99.90;4.40;102504.00;;;;4991553;27;87002;-65
2022/01/18 11:41:04;;;;;;;8.87;1.80;;;4.60;99.90;4.40;102501.00;;;;4993117;27;87905;-65
2022/01/18 11:43:43;;;;;;;9.63;2.17;;;4.70;99.90;4.40;102503.00;;;;5010545;27;88817;-66
2022/01/18 11:46:31;;;;;;;8.90;2.70;;;4.60;99.90;4.40;102507.00;;;;5013396;27;88869;-66
2022/01/18 11:49:04;;;;;;;9.33;2.33;;;4.60;99.90;4.40;102498.00;;;;4991823;27;87519;-65
2022/01/18 11:51:44;;;;;;;9.27;2.13;;;4.70;99.90;4.40;102505.00;;;;5010682;27;87715;-66
2022/01/18 11:57:00;;;;;;;10.13;2.70;;;4.70;99.90;4.50;102502.00;;;;5011269;27;87937;-67
2022/01/18 11:59:39;;;;;;;4.90;2.57;;;4.70;99.90;4.50;102503.00;;;;4994733;27;88268;-65
2022/01/18 12:02:07;;;;;;;4.40;2.27;;;4.70;99.90;4.50;102507.00;;;;4994812;27;87899;-65
2022/01/18 12:04:40;;;;;;;6.80;2.20;;;4.70;99.90;4.50;102524.00;;;;5012833;27;88805;-65